Time;durP1;ratioP1;P1;durP2;ratioP2;P2;SDS_P1;SDS_P2;PMS_P1;PMS_P2;Temp;Humidity;BMP_temperature;BMP_pressure;BME280_temperature;BME280_humidity;BME280_pressure;Samples;Min_cycle;Max_cycle;Signal;HPM_P1;HPM_P2
2024/02/14 00:01:12;;;;;;;26.27;19.03;;;9.60;99.90;;;;;;4888452;29;38892;-79
2024/02/14 00:03:38;;;;;;;20.03;17.93;;;9.50;99.90;;;;;;4919097;29;37378;-79
2024/02/14 00:06:06;;;;;;;19.87;17.80;;;9.60;99.90;;;;;;4887283;29;39190;-79
2024/02/14 00:08:32;;;;;;;25.27;19.33;;;9.60;99.90;;;;;;4892315;29;39982;-79
2024/02/14 00:10:58;;;;;;;20.60;17.57;;;9.60;99.90;;;;;;4885255;29;38516;-79
2024/02/14 00:13:24;;;;;;;26.57;18.73;;;9.60;99.90;;;;;;4885172;28;38204;-79
2024/02/14 00:15:51;;;;;;;19.50;16.63;;;9.60;99.90;;;;;;4885108;28;37677;-79
2024/02/14 00:18:18;;;;;;;21.50;17.60;;;9.60;99.90;;;;;;4894886;29;38289;-79
2024/02/14 00:20:44;;;;;;;25.03;18.00;;;9.60;99.90;;;;;;4922602;28;38297;-79
2024/02/14 00:23:11;;;;;;;21.10;18.10;;;9.60;99.90;;;;;;4915270;28;36873;-79
2024/02/14 00:25:37;;;;;;;22.13;18.27;;;9.70;99.90;;;;;;4885608;29;38179;-79
2024/02/14 00:28:05;;;;;;;20.90;18.13;;;9.70;99.90;;;;;;4883429;29;38256;-79
2024/02/14 00:30:31;;;;;;;19.87;17.50;;;9.70;99.90;;;;;;4924488;28;39025;-79
2024/02/14 00:32:58;;;;;;;25.27;19.50;;;9.70;99.90;;;;;;4902863;28;36876;-79
2024/02/14 00:35:24;;;;;;;27.20;20.50;;;9.70;99.90;;;;;;4888379;29;36732;-80
2024/02/14 00:37:50;;;;;;;21.20;18.57;;;9.70;99.90;;;;;;4887348;29;38142;-80
2024/02/14 00:40:17;;;;;;;26.60;19.03;;;9.70;99.90;;;;;;4900613;29;40125;-79
2024/02/14 00:42:43;;;;;;;24.57;19.43;;;9.70;99.90;;;;;;4891576;29;37648;-79
2024/02/14 00:45:10;;;;;;;24.03;20.03;;;9.70;99.90;;;;;;4890559;29;36821;-79
2024/02/14 00:47:36;;;;;;;25.47;20.53;;;9.70;99.90;;;;;;4885419;29;40343;-79
2024/02/14 00:50:03;;;;;;;23.67;19.23;;;9.70;99.90;;;;;;4886022;29;38955;-79
2024/02/14 00:52:30;;;;;;;26.17;18.50;;;9.70;99.90;;;;;;4883921;29;42041;-79
2024/02/14 00:54:57;;;;;;;21.20;18.93;;;9.80;99.90;;;;;;4889408;29;37843;-79
2024/02/14 00:57:25;;;;;;;25.20;19.20;;;9.80;99.90;;;;;;4886364;28;40279;-79
2024/02/14 00:59:52;;;;;;;22.90;18.23;;;9.80;99.90;;;;;;4908104;28;37045;-79
2024/02/14 01:02:19;;;;;;;23.73;18.13;;;9.80;99.90;;;;;;4920916;28;39549;-79
2024/02/14 01:04:46;;;;;;;25.43;18.80;;;9.80;99.90;;;;;;4890965;28;37409;-79
2024/02/14 01:07:13;;;;;;;25.70;18.40;;;9.80;99.90;;;;;;4903539;28;38284;-79
2024/02/14 01:09:39;;;;;;;20.67;17.10;;;9.80;99.90;;;;;;4890893;29;37648;-79
2024/02/14 01:12:05;;;;;;;23.33;17.53;;;9.80;99.90;;;;;;4908752;28;37026;-79
2024/02/14 01:14:31;;;;;;;25.73;18.87;;;9.80;99.90;;;;;;4922435;28;37671;-79
2024/02/14 01:16:57;;;;;;;22.43;17.47;;;9.80;99.90;;;;;;4890657;29;35444;-80
2024/02/14 01:19:28;;;;;;;25.90;17.53;;;9.80;99.90;;;;;;4894317;29;38635;-80
2024/02/14 01:21:56;;;;;;;22.43;17.73;;;9.80;99.90;;;;;;4896485;28;38194;-80
2024/02/14 01:24:22;;;;;;;22.87;17.30;;;9.80;99.90;;;;;;4900259;28;37270;-80
2024/02/14 01:26:50;;;;;;;22.37;16.07;;;9.80;99.90;;;;;;4899243;29;39044;-81
2024/02/14 01:29:16;;;;;;;20.57;16.43;;;9.80;99.90;;;;;;4912097;28;37521;-80
2024/02/14 01:31:42;;;;;;;19.70;15.43;;;9.80;99.90;;;;;;4898486;29;36976;-80
2024/02/14 01:34:09;;;;;;;19.90;15.47;;;9.90;99.90;;;;;;4928690;28;37236;-79
2024/02/14 01:36:35;;;;;;;19.80;14.87;;;9.90;99.90;;;;;;4922846;28;37968;-80
2024/02/14 01:39:01;;;;;;;19.87;14.10;;;9.90;99.90;;;;;;4928531;28;37230;-79
2024/02/14 01:41:27;;;;;;;18.47;15.30;;;9.90;99.90;;;;;;4895202;28;38536;-79
2024/02/14 01:43:53;;;;;;;18.43;14.73;;;9.90;99.90;;;;;;4896799;29;38407;-79
2024/02/14 01:46:19;;;;;;;17.83;13.77;;;9.90;99.90;;;;;;4889442;29;37759;-79
2024/02/14 01:48:46;;;;;;;16.23;14.07;;;9.90;99.90;;;;;;4893934;29;37512;-79
2024/02/14 01:51:17;;;;;;;19.13;15.70;;;9.90;99.90;;;;;;4896503;28;37929;-79
2024/02/14 01:53:43;;;;;;;17.50;14.50;;;9.90;99.90;;;;;;4895017;28;37409;-78
2024/02/14 01:56:09;;;;;;;16.60;13.70;;;9.90;99.90;;;;;;4894926;28;39615;-79
2024/02/14 01:58:37;;;;;;;17.60;14.90;;;9.90;99.90;;;;;;4897289;29;37223;-79
2024/02/14 02:03:40;;;;;;;16.00;13.63;;;9.90;99.90;;;;;;4973794;23;20052;-78
2024/02/14 02:06:06;;;;;;;17.90;14.63;;;10.00;99.90;;;;;;4930861;28;39504;-79
2024/02/14 02:08:33;;;;;;;23.67;14.83;;;10.00;99.90;;;;;;4933823;28;37224;-79
2024/02/14 02:10:59;;;;;;;18.97;15.17;;;10.00;99.90;;;;;;4935542;28;38086;-79
2024/02/14 02:13:25;;;;;;;19.20;16.27;;;10.00;99.90;;;;;;4927468;28;37840;-79
2024/02/14 02:15:53;;;;;;;16.37;14.63;;;10.00;99.90;;;;;;4931808;28;39610;-79
2024/02/14 02:18:19;;;;;;;23.07;15.37;;;10.00;99.90;;;;;;4930371;28;37727;-79
2024/02/14 02:20:46;;;;;;;18.27;16.37;;;10.10;99.90;;;;;;4931039;28;38619;-79
2024/02/14 02:23:15;;;;;;;18.40;15.90;;;10.00;99.90;;;;;;4930796;28;36848;-76
2024/02/14 02:25:42;;;;;;;20.37;16.53;;;10.10;99.90;;;;;;4930038;28;38464;-79
2024/02/14 02:28:08;;;;;;;18.37;15.30;;;10.10;99.90;;;;;;4932114;28;39845;-79
2024/02/14 02:30:36;;;;;;;19.07;15.53;;;10.10;99.90;;;;;;4928520;28;38390;-78
2024/02/14 02:33:02;;;;;;;22.47;16.30;;;10.20;99.90;;;;;;4930648;28;39365;-77
2024/02/14 02:35:29;;;;;;;21.07;15.77;;;10.20;99.90;;;;;;4925825;28;38917;-77
2024/02/14 02:37:55;;;;;;;17.80;15.87;;;10.20;99.90;;;;;;4928520;28;38262;-77
2024/02/14 02:40:23;;;;;;;24.43;17.20;;;10.20;99.90;;;;;;4928634;28;38190;-77
2024/02/14 02:42:50;;;;;;;26.23;17.65;;;10.20;99.90;;;;;;4928417;28;37468;-77
2024/02/14 02:45:17;;;;;;;21.60;16.93;;;10.30;99.90;;;;;;4928283;28;39714;-78
2024/02/14 02:47:43;;;;;;;23.17;18.30;;;10.30;99.90;;;;;;4927832;29;37461;-78
2024/02/14 02:50:09;;;;;;;22.60;16.47;;;10.30;99.90;;;;;;4931204;28;36922;-77
2024/02/14 02:52:35;;;;;;;24.77;17.50;;;10.30;99.90;;;;;;4931571;29;36116;-77
2024/02/14 02:55:02;;;;;;;30.87;17.70;;;10.30;99.90;;;;;;4932135;28;40511;-77
2024/02/14 02:57:36;;;;;;;23.33;16.83;;;10.30;99.90;;;;;;4927354;29;38692;-78
2024/02/14 03:00:12;;;;;;;25.97;17.47;;;10.30;99.90;;;;;;4924960;29;37362;-78
2024/02/14 03:02:41;;;;;;;24.47;16.50;;;10.40;99.90;;;;;;4924443;29;38413;-77
2024/02/14 03:05:10;;;;;;;23.87;17.93;;;10.40;99.90;;;;;;4926443;28;38146;-77
2024/02/14 03:07:37;;;;;;;24.40;17.17;;;10.30;99.90;;;;;;4925873;29;39375;-77
2024/02/14 03:10:04;;;;;;;27.27;17.70;;;10.40;99.90;;;;;;4926411;28;40128;-77
2024/02/14 03:12:31;;;;;;;26.10;16.00;;;10.30;99.90;;;;;;4942614;28;46419;-77
2024/02/14 03:14:58;;;;;;;21.37;15.90;;;10.30;99.90;;;;;;4926168;28;38943;-77
2024/02/14 03:17:24;;;;;;;23.83;15.57;;;10.40;99.90;;;;;;4925244;29;38524;-77
2024/02/14 03:19:51;;;;;;;21.27;15.60;;;10.40;99.90;;;;;;4926510;29;38796;-77
2024/02/14 03:22:18;;;;;;;20.83;15.20;;;10.40;99.90;;;;;;4927801;28;38317;-76
2024/02/14 03:24:46;;;;;;;21.63;14.63;;;10.40;99.90;;;;;;4924318;29;37955;-78
2024/02/14 03:27:12;;;;;;;22.80;15.50;;;10.50;99.90;;;;;;4927958;28;39424;-79
2024/02/14 03:29:39;;;;;;;22.90;15.07;;;10.50;99.90;;;;;;4929279;28;38826;-76
2024/02/14 03:32:05;;;;;;;23.00;13.80;;;10.50;99.90;;;;;;4928243;28;38018;-77
2024/02/14 03:34:35;;;;;;;21.53;14.67;;;10.50;99.90;;;;;;4928398;28;39039;-76
2024/02/14 03:37:02;;;;;;;23.13;14.10;;;10.50;99.90;;;;;;4930204;28;38414;-77
2024/02/14 03:39:30;;;;;;;22.77;14.93;;;10.50;99.90;;;;;;4932685;28;38408;-77
2024/02/14 03:41:56;;;;;;;20.33;14.07;;;10.60;99.90;;;;;;4934564;28;38833;-77
2024/02/14 03:44:23;;;;;;;22.13;15.77;;;10.60;99.90;;;;;;4934641;28;38538;-77
2024/02/14 03:46:50;;;;;;;25.23;16.03;;;10.60;99.90;;;;;;4931839;28;39149;-77
2024/02/14 03:49:16;;;;;;;21.83;15.50;;;10.60;99.90;;;;;;4933208;28;38550;-78
2024/02/14 03:51:42;;;;;;;21.47;14.87;;;10.60;99.90;;;;;;4930477;28;37540;-77
2024/02/14 03:54:09;;;;;;;29.30;16.23;;;10.60;99.90;;;;;;4927521;28;37782;-77
2024/02/14 03:56:37;;;;;;;25.67;17.13;;;10.60;99.90;;;;;;4928511;29;37734;-79
2024/02/14 03:59:05;;;;;;;26.77;15.90;;;10.60;99.90;;;;;;4927700;28;37586;-78
2024/02/14 04:01:31;;;;;;;22.10;15.47;;;10.60;99.90;;;;;;4932481;28;38086;-78
2024/02/14 04:03:59;;;;;;;19.60;15.50;;;10.70;99.90;;;;;;4929186;28;39933;-78
2024/02/14 04:06:26;;;;;;;25.80;16.53;;;10.70;99.90;;;;;;4927831;28;38650;-78
2024/02/14 04:08:52;;;;;;;25.03;15.57;;;10.70;99.90;;;;;;4931236;28;37503;-78
2024/02/14 04:11:19;;;;;;;27.60;17.33;;;10.70;99.90;;;;;;4930344;28;37363;-78
2024/02/14 04:13:45;;;;;;;27.03;16.93;;;10.70;99.90;;;;;;4927938;29;37229;-77
2024/02/14 04:16:11;;;;;;;30.03;17.70;;;10.70;99.90;;;;;;4931582;28;38669;-78
2024/02/14 04:18:38;;;;;;;22.53;16.00;;;10.70;99.90;;;;;;4928804;29;39705;-77
2024/02/14 04:21:07;;;;;;;27.43;16.97;;;10.70;99.90;;;;;;4929033;28;36797;-77
2024/02/14 04:23:33;;;;;;;18.98;15.88;;;10.70;99.90;;;;;;4932699;28;39735;-77
2024/02/14 04:25:59;;;;;;;27.00;17.05;;;10.70;99.90;;;;;;4937044;28;38884;-78
2024/02/14 04:28:25;;;;;;;27.02;17.27;;;10.70;99.90;;;;;;4923477;28;38531;-78
2024/02/14 04:30:53;;;;;;;23.13;17.33;;;10.70;99.90;;;;;;4922573;29;38599;-77
2024/02/14 04:33:19;;;;;;;26.10;17.60;;;10.70;99.90;;;;;;4920495;28;37687;-79
2024/02/14 04:35:45;;;;;;;26.40;18.43;;;10.70;99.90;;;;;;4927880;29;39092;-78
2024/02/14 04:38:11;;;;;;;28.90;20.93;;;10.70;99.90;;;;;;4924122;28;37512;-76
2024/02/14 04:40:38;;;;;;;24.67;19.27;;;10.70;99.90;;;;;;4942298;28;38130;-78
2024/02/14 04:43:05;;;;;;;21.17;18.00;;;10.70;99.90;;;;;;4928350;28;40318;-78
2024/02/14 04:45:31;;;;;;;22.47;19.47;;;10.70;99.90;;;;;;4933472;28;39497;-78
2024/02/14 04:47:57;;;;;;;23.87;18.70;;;10.70;99.90;;;;;;4936666;28;38759;-78
2024/02/14 04:50:23;;;;;;;19.73;17.60;;;10.70;99.90;;;;;;4943146;28;38461;-78
2024/02/14 04:52:49;;;;;;;18.93;17.00;;;10.70;99.90;;;;;;4930188;29;38577;-78
2024/02/14 04:55:16;;;;;;;21.60;16.77;;;10.70;99.90;;;;;;4929092;28;39216;-77
2024/02/14 04:57:42;;;;;;;17.50;15.70;;;10.70;99.90;;;;;;4935145;28;38102;-78
2024/02/14 05:00:09;;;;;;;20.60;17.67;;;10.70;99.90;;;;;;4936056;28;39238;-77
2024/02/14 05:02:36;;;;;;;18.37;15.90;;;10.70;99.90;;;;;;4930459;28;39104;-77
2024/02/14 05:05:03;;;;;;;17.87;16.03;;;10.70;99.90;;;;;;4930315;28;39146;-77
2024/02/14 05:07:29;;;;;;;21.00;16.50;;;10.70;99.90;;;;;;4930318;28;47796;-77
2024/02/14 05:09:56;;;;;;;19.30;17.30;;;10.70;99.90;;;;;;4931063;28;35456;-77
2024/02/14 05:12:22;;;;;;;20.43;18.20;;;10.70;99.90;;;;;;4933926;28;38975;-76
2024/02/14 05:14:48;;;;;;;20.20;18.10;;;10.70;99.90;;;;;;4935579;28;37690;-77
2024/02/14 05:17:15;;;;;;;20.70;18.27;;;10.70;99.90;;;;;;4927394;28;39340;-77
2024/02/14 05:19:44;;;;;;;22.17;17.90;;;10.70;99.90;;;;;;4929430;28;36777;-76
2024/02/14 05:22:10;;;;;;;28.37;20.40;;;10.70;99.90;;;;;;4929736;29;40328;-77
2024/02/14 05:24:37;;;;;;;27.50;19.30;;;10.70;99.90;;;;;;4929083;28;38816;-76
2024/02/14 05:27:05;;;;;;;28.17;21.15;;;10.60;99.90;;;;;;4929784;28;37881;-77
2024/02/14 05:29:31;;;;;;;30.40;22.70;;;10.60;99.90;;;;;;4929588;28;37959;-77
2024/02/14 05:31:57;;;;;;;31.07;22.20;;;10.60;99.90;;;;;;4930197;28;39830;-77
2024/02/14 05:34:24;;;;;;;29.70;22.77;;;10.60;99.90;;;;;;4929508;28;39837;-77
2024/02/14 05:36:51;;;;;;;31.40;21.70;;;10.70;99.90;;;;;;4930069;28;38391;-77
2024/02/14 05:39:17;;;;;;;25.87;20.53;;;10.60;99.90;;;;;;4936186;28;37416;-78
2024/02/14 05:41:43;;;;;;;25.03;20.40;;;10.70;99.90;;;;;;4937576;28;39685;-78
2024/02/14 05:44:09;;;;;;;29.47;21.57;;;10.70;99.90;;;;;;4934744;28;39621;-77
2024/02/14 05:46:36;;;;;;;28.50;21.53;;;10.70;99.90;;;;;;4925578;28;38256;-77
2024/02/14 05:49:02;;;;;;;24.60;19.27;;;10.70;99.90;;;;;;4933804;28;39336;-76
2024/02/14 05:51:28;;;;;;;32.92;21.27;;;10.70;99.90;;;;;;4931483;28;39099;-78
2024/02/14 05:53:55;;;;;;;28.17;20.07;;;10.70;99.90;;;;;;4929932;28;38729;-77
2024/02/14 05:56:21;;;;;;;26.57;20.97;;;10.70;99.90;;;;;;4928698;28;38970;-77
2024/02/14 05:58:47;;;;;;;38.27;22.67;;;10.70;99.90;;;;;;4938743;28;36237;-77
2024/02/14 06:01:13;;;;;;;28.77;22.63;;;10.70;99.90;;;;;;4930216;28;39751;-77
2024/02/14 06:03:42;;;;;;;26.37;21.57;;;10.80;99.90;;;;;;4930527;28;37702;-77
2024/02/14 06:06:09;;;;;;;31.07;23.33;;;10.80;99.90;;;;;;4928700;28;38004;-76
2024/02/14 06:08:35;;;;;;;34.70;25.47;;;10.80;99.90;;;;;;4934060;28;37756;-77
2024/02/14 06:11:01;;;;;;;32.72;24.50;;;10.80;99.90;;;;;;4935015;28;39895;-77
2024/02/14 06:13:27;;;;;;;29.30;23.97;;;10.80;99.90;;;;;;4934369;28;47001;-77
2024/02/14 06:15:53;;;;;;;31.37;25.17;;;10.80;99.90;;;;;;4930320;28;40086;-77
2024/02/14 06:18:19;;;;;;;29.67;24.47;;;10.80;99.90;;;;;;4925282;28;37038;-77
2024/02/14 06:20:46;;;;;;;29.73;24.00;;;10.80;99.90;;;;;;4923862;28;40110;-79
2024/02/14 06:23:13;;;;;;;34.58;22.92;;;10.80;99.90;;;;;;4936258;28;37497;-77
2024/02/14 06:25:40;;;;;;;32.37;23.77;;;10.80;99.90;;;;;;4930506;28;38194;-77
2024/02/14 06:28:06;;;;;;;35.07;21.57;;;10.80;99.90;;;;;;4934312;28;38272;-77
2024/02/14 06:30:32;;;;;;;23.80;20.30;;;10.90;99.90;;;;;;4938393;28;37540;-76
2024/02/14 06:33:00;;;;;;;33.20;21.70;;;10.90;99.90;;;;;;4923457;28;38430;-77
2024/02/14 06:35:26;;;;;;;27.60;20.52;;;10.90;99.90;;;;;;4922511;28;38390;-77
2024/02/14 06:37:53;;;;;;;30.40;22.08;;;10.90;99.90;;;;;;4934371;28;35726;-77
2024/02/14 06:40:19;;;;;;;27.98;20.10;;;10.90;99.90;;;;;;4930349;28;38731;-77
2024/02/14 06:42:45;;;;;;;31.25;21.10;;;10.90;99.90;;;;;;4931928;28;38433;-77
2024/02/14 06:45:11;;;;;;;29.30;21.97;;;10.90;99.90;;;;;;4929171;28;37823;-77
2024/02/14 06:47:38;;;;;;;26.63;21.13;;;11.00;99.90;;;;;;4930682;28;37110;-76
2024/02/14 06:50:06;;;;;;;23.42;19.30;;;11.00;99.90;;;;;;4937729;28;38933;-76
2024/02/14 06:52:32;;;;;;;26.17;19.83;;;10.90;99.90;;;;;;4925428;28;39056;-77
2024/02/14 06:54:58;;;;;;;25.33;19.77;;;11.00;99.90;;;;;;4927985;28;40034;-76
2024/02/14 06:57:25;;;;;;;28.67;21.10;;;10.90;99.90;;;;;;4933712;28;38176;-76
2024/02/14 06:59:51;;;;;;;23.00;19.13;;;11.00;99.90;;;;;;4933213;28;39538;-77
2024/02/14 07:02:17;;;;;;;20.42;16.85;;;11.00;99.90;;;;;;4929760;28;39801;-78
2024/02/14 07:04:43;;;;;;;23.27;18.97;;;11.00;99.90;;;;;;4931566;29;37005;-77
2024/02/14 07:07:09;;;;;;;26.58;19.67;;;10.90;99.90;;;;;;4934592;28;37532;-77
2024/02/14 07:09:37;;;;;;;21.83;18.23;;;11.00;99.90;;;;;;4932575;28;39202;-78
2024/02/14 07:12:03;;;;;;;21.63;19.27;;;11.00;99.90;;;;;;4927428;28;39134;-76
2024/02/14 07:14:29;;;;;;;22.00;19.60;;;11.00;99.90;;;;;;4923236;29;39335;-76
2024/02/14 07:16:55;;;;;;;21.73;18.57;;;11.00;99.90;;;;;;4930320;28;39158;-75
2024/02/14 07:19:22;;;;;;;24.87;19.03;;;11.00;99.90;;;;;;4914084;28;38540;-76
2024/02/14 07:21:48;;;;;;;23.70;19.20;;;11.00;99.90;;;;;;4896564;28;36856;-76
2024/02/14 07:24:14;;;;;;;32.87;23.03;;;11.00;99.90;;;;;;4902530;28;40243;-76
2024/02/14 07:26:41;;;;;;;28.00;21.17;;;11.00;99.90;;;;;;4908460;28;37684;-76
2024/02/14 07:29:07;;;;;;;24.10;19.37;;;11.00;99.90;;;;;;4906614;28;39856;-76
2024/02/14 07:31:34;;;;;;;24.07;19.27;;;11.00;99.90;;;;;;4905751;28;37135;-77
2024/02/14 07:34:02;;;;;;;27.07;20.03;;;11.00;99.90;;;;;;4905515;28;38133;-75
2024/02/14 07:36:30;;;;;;;24.50;19.20;;;11.00;99.90;;;;;;4906126;28;47207;-76
2024/02/14 07:38:57;;;;;;;25.67;20.33;;;11.00;99.90;;;;;;4907988;28;37947;-77
2024/02/14 07:41:23;;;;;;;23.63;18.67;;;11.00;99.90;;;;;;4910819;28;39325;-75
2024/02/14 07:43:50;;;;;;;21.92;19.42;;;10.90;99.90;;;;;;4912707;28;38250;-75
2024/02/14 07:46:19;;;;;;;28.67;21.67;;;10.90;99.90;;;;;;4913388;28;37604;-76
2024/02/14 07:48:46;;;;;;;26.13;20.00;;;10.80;99.90;;;;;;4909632;28;38710;-76
2024/02/14 07:51:12;;;;;;;22.43;19.20;;;10.80;99.90;;;;;;4910768;28;37857;-78
2024/02/14 07:53:39;;;;;;;23.23;18.45;;;10.80;99.90;;;;;;4915258;28;38908;-76
2024/02/14 07:56:05;;;;;;;25.13;21.58;;;10.80;99.90;;;;;;4909459;28;35753;-76
2024/02/14 07:58:31;;;;;;;26.52;21.52;;;10.80;99.90;;;;;;4904771;28;37087;-76
2024/02/14 08:00:58;;;;;;;24.53;19.30;;;10.80;99.90;;;;;;4908510;28;39516;-76
2024/02/14 08:03:24;;;;;;;27.43;21.03;;;10.80;99.90;;;;;;4913180;28;37303;-77
2024/02/14 08:05:51;;;;;;;26.70;19.53;;;10.80;99.90;;;;;;4924531;29;37963;-76
2024/02/14 08:08:17;;;;;;;25.20;18.70;;;10.80;99.90;;;;;;4923264;28;37536;-77
2024/02/14 08:10:43;;;;;;;24.73;18.50;;;10.80;99.90;;;;;;4916373;28;36051;-75
2024/02/14 08:13:11;;;;;;;19.13;17.13;;;10.80;99.90;;;;;;4923003;28;38190;-77
2024/02/14 08:15:37;;;;;;;23.87;18.40;;;10.90;99.90;;;;;;4925412;28;39079;-76
2024/02/14 08:18:03;;;;;;;22.60;16.57;;;11.00;99.90;;;;;;4926697;28;40850;-77
2024/02/14 08:20:29;;;;;;;20.77;16.43;;;10.90;99.90;;;;;;4926232;28;38013;-76
2024/02/14 08:22:56;;;;;;;22.73;16.23;;;11.00;99.90;;;;;;4928377;28;36836;-78
2024/02/14 08:25:22;;;;;;;21.70;15.83;;;11.00;99.90;;;;;;4932391;28;36729;-77
2024/02/14 08:27:48;;;;;;;18.95;15.05;;;11.00;99.90;;;;;;4942596;28;39467;-77
2024/02/14 08:30:14;;;;;;;23.30;15.65;;;11.00;99.90;;;;;;4935367;28;36533;-76
2024/02/14 08:32:41;;;;;;;17.47;14.93;;;11.10;99.90;;;;;;4931890;29;38218;-76
2024/02/14 08:35:07;;;;;;;26.20;16.27;;;11.10;99.90;;;;;;4939558;28;38063;-76
2024/02/14 08:37:36;;;;;;;18.63;14.67;;;11.10;99.90;;;;;;4932368;28;38432;-76
2024/02/14 08:40:05;;;;;;;22.30;17.30;;;11.10;99.90;;;;;;4930606;28;39131;-76
2024/02/14 08:42:33;;;;;;;16.90;14.63;;;11.10;99.90;;;;;;4929013;28;45146;-77
2024/02/14 08:44:59;;;;;;;20.20;15.07;;;11.20;99.90;;;;;;4930377;28;36910;-77
2024/02/14 08:47:26;;;;;;;22.40;15.70;;;11.20;99.90;;;;;;4932336;28;39544;-76
2024/02/14 08:49:52;;;;;;;19.27;15.10;;;11.20;99.90;;;;;;4930057;28;39685;-77
2024/02/14 08:52:18;;;;;;;19.27;14.03;;;11.20;99.90;;;;;;4933678;28;39135;-76
2024/02/14 08:54:44;;;;;;;16.50;13.17;;;11.30;99.90;;;;;;4929152;28;35726;-76
2024/02/14 08:57:10;;;;;;;15.83;13.43;;;11.30;99.90;;;;;;4924536;28;39148;-77
2024/02/14 08:59:37;;;;;;;18.23;12.93;;;11.30;99.90;;;;;;4923962;29;37248;-76
2024/02/14 09:02:03;;;;;;;14.98;12.23;;;11.30;99.90;;;;;;4925252;28;38106;-76
2024/02/14 09:04:29;;;;;;;19.58;13.73;;;11.30;99.90;;;;;;4928144;28;38867;-76
2024/02/14 09:06:56;;;;;;;16.27;12.90;;;11.30;99.90;;;;;;4930362;28;39762;-78
2024/02/14 09:09:23;;;;;;;16.03;12.53;;;11.30;99.90;;;;;;4927841;28;38330;-76
2024/02/14 09:11:50;;;;;;;17.08;13.82;;;11.30;99.90;;;;;;4934710;28;38024;-76
2024/02/14 09:14:20;;;;;;;17.42;14.15;;;11.30;99.90;;;;;;4925129;28;38180;-77
2024/02/14 09:16:47;;;;;;;18.10;12.73;;;11.30;99.90;;;;;;4926423;29;39140;-76
2024/02/14 09:19:13;;;;;;;15.83;12.80;;;11.30;99.90;;;;;;4922307;28;39172;-77
2024/02/14 09:21:39;;;;;;;18.65;12.68;;;11.30;99.90;;;;;;4926984;28;37522;-77
2024/02/14 09:24:06;;;;;;;21.50;14.73;;;11.30;99.90;;;;;;4925372;28;37558;-77
2024/02/14 09:26:32;;;;;;;21.00;13.88;;;11.30;99.90;;;;;;4923030;28;39171;-76
2024/02/14 09:28:58;;;;;;;19.00;13.80;;;11.30;99.90;;;;;;4910645;28;38361;-76
2024/02/14 09:31:25;;;;;;;19.70;14.13;;;11.30;99.90;;;;;;4915364;28;37892;-77
2024/02/14 09:33:52;;;;;;;18.92;13.35;;;11.30;99.90;;;;;;4922211;28;37752;-77
2024/02/14 09:36:19;;;;;;;19.73;13.27;;;11.30;99.90;;;;;;4918306;28;39970;-77
2024/02/14 09:38:45;;;;;;;13.82;12.00;;;11.30;99.90;;;;;;4922342;28;38466;-77
2024/02/14 09:41:16;;;;;;;16.23;11.63;;;11.30;99.90;;;;;;4924676;28;36737;-77
2024/02/14 09:43:45;;;;;;;16.30;12.18;;;11.40;99.90;;;;;;4920415;28;37451;-78
2024/02/14 09:46:15;;;;;;;17.75;11.90;;;11.40;99.90;;;;;;4920396;28;41383;-76
2024/02/14 09:48:44;;;;;;;17.38;11.45;;;11.40;99.90;;;;;;4915702;28;37517;-76
2024/02/14 09:51:12;;;;;;;15.50;11.05;;;11.50;99.90;;;;;;4918583;28;41292;-78
2024/02/14 09:53:41;;;;;;;14.85;11.20;;;11.50;99.90;;;;;;4920462;28;38014;-76
2024/02/14 09:56:12;;;;;;;14.10;10.38;;;11.50;99.90;;;;;;4922136;28;38317;-77
2024/02/14 09:58:40;;;;;;;14.10;9.95;;;11.50;99.90;;;;;;4921946;28;38676;-77
2024/02/14 10:01:07;;;;;;;18.58;12.15;;;11.50;99.90;;;;;;4916360;28;37904;-78
2024/02/14 10:03:35;;;;;;;12.98;10.25;;;11.60;99.90;;;;;;4915553;28;38470;-77
2024/02/14 10:06:01;;;;;;;12.25;11.00;;;11.50;99.90;;;;;;4920597;28;37643;-77
2024/02/14 10:08:28;;;;;;;13.50;10.15;;;11.50;99.90;;;;;;4920783;28;47454;-77
2024/02/14 10:10:57;;;;;;;12.75;10.75;;;11.60;99.90;;;;;;4918235;28;38783;-77
2024/02/14 10:13:27;;;;;;;14.75;11.10;;;11.60;99.90;;;;;;4920184;28;38364;-77
2024/02/14 10:15:54;;;;;;;11.57;9.63;;;11.60;99.90;;;;;;4913006;28;40334;-76
2024/02/14 10:18:22;;;;;;;16.52;12.27;;;11.60;99.90;;;;;;4916428;28;38613;-75
2024/02/14 10:20:55;;;;;;;13.50;11.05;;;11.70;99.90;;;;;;4917561;28;37362;-75
2024/02/14 10:23:22;;;;;;;14.40;11.23;;;11.70;99.90;;;;;;4912138;28;38528;-77
2024/02/14 10:25:51;;;;;;;11.55;10.40;;;11.70;99.90;;;;;;4915043;28;40282;-76
2024/02/14 10:28:17;;;;;;;14.73;11.52;;;11.80;99.90;;;;;;4918822;28;39376;-79
2024/02/14 10:30:46;;;;;;;12.38;10.63;;;11.80;99.90;;;;;;4918993;28;38661;-77
2024/02/14 10:33:15;;;;;;;17.70;12.10;;;11.90;99.90;;;;;;4920072;28;37364;-76
2024/02/14 10:35:42;;;;;;;14.13;12.30;;;11.90;99.90;;;;;;4919650;28;39617;-75
2024/02/14 10:38:12;;;;;;;17.27;13.98;;;11.90;99.90;;;;;;4919271;28;39599;-77
2024/02/14 10:40:38;;;;;;;14.23;12.75;;;11.90;99.90;;;;;;4923128;28;37999;-77
2024/02/14 10:43:11;;;;;;;17.20;14.02;;;12.00;99.90;;;;;;4911084;28;37660;-76
2024/02/14 10:45:37;;;;;;;;;;;12.00;99.90;;;;;;4915527;28;39139;-76
2024/02/14 10:48:10;;;;;;;14.70;12.05;;;12.00;99.90;;;;;;4916191;28;38526;-76
2024/02/14 10:50:44;;;;;;;12.45;11.20;;;12.00;99.90;;;;;;4917719;28;36776;-77
2024/02/14 10:53:17;;;;;;;16.40;11.63;;;12.00;99.90;;;;;;4915447;28;36888;-76
2024/02/14 10:55:49;;;;;;;16.40;11.23;;;12.10;99.90;;;;;;4922660;28;38751;-77
2024/02/14 10:58:18;;;;;;;14.10;10.38;;;12.10;99.90;;;;;;4916615;28;38545;-76
2024/02/14 11:00:46;;;;;;;12.35;11.02;;;12.10;99.90;;;;;;4921856;28;37643;-77
2024/02/14 11:03:15;;;;;;;14.35;10.70;;;12.10;99.90;;;;;;4919356;28;36174;-78
2024/02/14 11:05:49;;;;;;;15.07;10.73;;;12.10;99.90;;;;;;4920935;28;39147;-76
2024/02/14 11:08:25;;;;;;;15.18;10.40;;;12.10;99.90;;;;;;4915933;28;38500;-77
2024/02/14 11:10:56;;;;;;;17.75;10.98;;;12.00;99.90;;;;;;4917343;28;39531;-77
2024/02/14 11:13:27;;;;;;;20.02;11.73;;;12.00;99.90;;;;;;4915797;28;37487;-76
2024/02/14 11:15:55;;;;;;;17.50;13.10;;;12.00;99.90;;;;;;4915992;28;38979;-76
2024/02/14 11:18:32;;;;;;;20.02;12.48;;;12.10;99.90;;;;;;4915092;28;41177;-76
2024/02/14 11:20:59;;;;;;;16.67;11.48;;;12.10;99.90;;;;;;4918210;28;38754;-76
2024/02/14 11:23:26;;;;;;;15.88;11.05;;;12.10;99.90;;;;;;4912419;28;37231;-77
2024/02/14 11:26:04;;;;;;;16.95;11.07;;;12.10;99.90;;;;;;4915807;28;37865;-76
2024/02/14 11:28:30;;;;;;;16.63;11.50;;;12.10;99.90;;;;;;4918593;28;48498;-78
2024/02/14 11:31:04;;;;;;;14.63;12.05;;;12.10;99.90;;;;;;4917415;28;37129;-76
2024/02/14 11:33:30;;;;;;;13.50;10.57;;;12.10;99.90;;;;;;4917109;28;49415;-77
2024/02/14 11:35:58;;;;;;;13.57;10.25;;;12.10;99.90;;;;;;4917489;28;37646;-77
2024/02/14 11:38:29;;;;;;;15.10;11.70;;;12.10;99.90;;;;;;4914743;28;39307;-77
2024/02/14 11:40:56;;;;;;;13.68;10.90;;;12.10;99.90;;;;;;4915134;28;36321;-76
2024/02/14 11:43:23;;;;;;;14.27;11.63;;;12.10;99.90;;;;;;4919133;28;37198;-76
2024/02/14 11:45:50;;;;;;;12.68;11.38;;;12.10;99.90;;;;;;4923422;28;39135;-76
2024/02/14 11:48:17;;;;;;;12.90;11.57;;;12.10;99.90;;;;;;4921221;28;38056;-76
2024/02/14 11:50:45;;;;;;;13.43;10.27;;;12.10;99.90;;;;;;4915366;28;38718;-76
2024/02/14 11:53:13;;;;;;;12.90;11.50;;;12.10;99.90;;;;;;4920182;28;37439;-77
2024/02/14 11:55:41;;;;;;;13.40;10.68;;;12.20;99.90;;;;;;4916108;28;38201;-76
2024/02/14 11:58:09;;;;;;;13.98;10.90;;;12.20;99.90;;;;;;4913821;28;37803;-76
2024/02/14 12:00:37;;;;;;;13.07;9.35;;;12.20;99.90;;;;;;4917438;28;37946;-77
2024/02/14 12:03:07;;;;;;;10.82;8.82;;;12.20;99.90;;;;;;4909858;28;37202;-77
2024/02/14 12:05:34;;;;;;;11.85;9.80;;;12.20;99.90;;;;;;4917644;28;38952;-79
2024/02/14 12:08:02;;;;;;;12.90;9.10;;;12.20;99.90;;;;;;4911437;28;38709;-75
2024/02/14 12:10:32;;;;;;;13.15;9.32;;;12.20;99.90;;;;;;4916596;28;48447;-76
2024/02/14 12:13:04;;;;;;;10.57;8.77;;;12.20;99.90;;;;;;4915014;28;36496;-77
2024/02/14 12:15:30;;;;;;;13.15;9.30;;;12.20;99.90;;;;;;4918162;28;48932;-76
2024/02/14 12:17:56;;;;;;;12.30;10.05;;;12.20;99.90;;;;;;4914350;28;39735;-76
2024/02/14 12:20:23;;;;;;;11.18;9.25;;;12.30;99.90;;;;;;4915612;28;39994;-77
2024/02/14 12:22:53;;;;;;;13.40;9.05;;;12.20;99.90;;;;;;4911843;28;38052;-76
2024/02/14 12:25:19;;;;;;;10.27;8.65;;;12.20;99.90;;;;;;4913262;28;38602;-78
2024/02/14 12:27:52;;;;;;;11.82;9.52;;;12.20;99.90;;;;;;4912944;28;37472;-76
2024/02/14 12:30:20;;;;;;;10.85;8.18;;;12.30;99.90;;;;;;4911204;28;37715;-75